Latest Weather Observations for Lajamanu

IDD60801

Issued at 6:34 pm CST Friday 30 January 2015 (issued every 30 minutes, with the page automatically refreshed every 10 minutes)

About weather observations | Map of weather stations | Latest weather observations for NT | Other Formats
Station Details ID: 014829 Name: LAJAMANU AIRPORT Lat: -18.33 Lon: 130.64 Height: 315.6 m
Data from the previous 72 hours. | See also: Recent months at Lajamanu
Date/Time
CST
Temp
°C
App
Temp
°C
Dew
Point
Rel
Hum
%
Delta-T
°C
Wind Press
QNH
hPa
Press
MSL
hPa
Rain
since 9 am
mm
Dir
 
Spd
km/h
Gust
km/h
Spd
kts
Gust
kts
30/06:30pm 35.2 34.7 15.0 30 12.8 SE 11 17 6 9 1005.5 1003.0 0.0
30/06:00pm 35.7 34.4 14.9 29 13.2 SE 15 20 8 11 1005.2 1002.6 0.0
30/05:30pm 37.3 38.2 14.0 25 14.6 SW 2 7 1 4 1005.1 1002.5 0.0
30/05:00pm 36.5 36.2 14.5 27 13.9 SE 9 17 5 9 1005.1 1002.5 0.0
30/04:30pm 36.6 36.2 15.1 27 13.7 SSW 11 17 6 9 1005.3 1002.7 0.0
30/04:00pm 36.4 36.3 15.0 28 13.6 SSE 9 15 5 8 1005.4 1002.9 0.0
30/03:30pm 36.3 36.4 15.4 28 13.3 SSE 9 17 5 9 1005.8 1003.3 0.0
30/03:00pm 35.4 34.3 13.0 26 13.8 S 11 17 6 9 1006.3 1003.7 0.0
30/02:30pm 35.8 35.9 13.9 27 13.7 ESE 6 13 3 7 1006.8 1004.2 0.0
30/02:00pm 36.1 36.5 14.7 28 13.5 SSE 6 11 3 6 1007.4 1004.8 0.0
30/01:30pm 35.8 35.3 15.0 29 13.2 SSW 11 17 6 9 1007.8 1005.2 0.0
30/01:00pm 33.8 33.5 14.3 31 12.1 SSE 9 15 5 8 1008.4 1005.9 0.0
30/12:30pm 35.3 35.8 15.6 31 12.6 WNW 7 11 4 6 1008.7 1006.2 0.0
30/12:00pm 34.7 35.2 17.4 35 11.3 SW 11 17 6 9 1009.1 1006.6 0.0
30/11:30am 33.5 34.3 17.2 37 10.6 WNW 9 15 5 8 1009.3 1006.8 0.0
30/11:00am 32.8 33.6 17.4 39 10.0 WNW 9 13 5 7 1009.6 1007.0 0.0
30/10:30am 32.3 33.4 18.8 44 8.9 SW 11 17 6 9 1009.7 1007.1 0.0
30/10:00am 31.2 32.8 19.9 51 7.5 WSW 11 17 6 9 1009.8 1007.2 0.0
30/09:30am 30.8 33.1 21.3 57 6.5 SW 11 15 6 8 1009.7 1007.1 0.0
30/09:00am 29.2 31.1 21.4 63 5.3 SW 13 17 7 9 1009.8 1007.2 0.0
30/08:30am 27.6 29.5 21.4 69 4.2 SW 13 19 7 10 1009.6 1007.0 0.0
30/08:00am 25.9 28.3 21.6 77 2.9 WSW 11 13 6 7 1009.3 1006.8 0.0
30/07:30am 24.4 27.5 21.1 82 2.2 WNW 6 9 3 5 1009.2 1006.7 0.0
30/07:00am 23.1 25.9 20.8 87 1.5 WNW 7 9 4 5 1008.8 1006.3 0.0
30/06:30am 22.7 25.5 20.4 87 1.5 WNW 6 7 3 4 1008.5 1006.0 0.0
30/06:00am 22.8 25.2 20.1 85 1.8 WNW 7 11 4 6 1008.4 1005.9 0.0
30/05:30am 23.0 25.6 20.0 83 2.0 WNW 6 7 3 4 1008.2 1005.6 0.0
30/05:00am 23.1 25.1 19.9 82 2.1 NW 9 11 5 6 1008.0 1005.4 0.0
30/04:30am 23.3 25.5 19.7 80 2.3 NNW 7 9 4 5 1008.0 1005.4 0.0
30/04:00am 23.4 25.6 19.3 78 2.6 NW 6 7 3 4 1008.0 1005.4 0.0
30/03:30am 23.7 25.6 19.0 75 3.0 WNW 7 9 4 5 1007.9 1005.3 0.0
30/03:00am 23.8 25.3 18.0 70 3.7 NW 7 9 4 5 1007.8 1005.2 0.0
30/02:30am 24.1 24.7 16.9 64 4.5 NW 9 11 5 6 1007.8 1005.2 0.0
30/02:00am 24.4 24.3 15.9 59 5.2 NNW 11 13 6 7 1008.2 1005.6 0.0
30/01:30am 24.7 24.6 15.9 58 5.4 N 11 11 6 6 1008.2 1005.6 0.0
30/01:00am 24.8 24.8 15.1 54 5.9 NNW 9 11 5 6 1008.5 1006.0 0.0
30/12:30am 26.1 25.5 14.6 49 7.0 N 11 13 6 7 1008.7 1006.2 0.0
30/12:00am 25.7 25.9 14.8 51 6.6 N 7 9 4 5 1009.0 1006.5 0.0
 
Date/Time
CST
Temp
°C
App
Temp
°C
Dew
Point
Rel
Hum
%
Delta-T
°C
Wind Press
QNH
hPa
Press
MSL
hPa
Rain
since 9 am
mm
Dir
 
Spd
km/h
Gust
km/h
Spd
kts
Gust
kts
29/11:30pm 27.7 26.9 12.9 40 8.8 NE 9 11 5 6 1009.2 1006.7 0.0
29/11:00pm 27.7 26.5 12.9 40 8.8 NE 11 13 6 7 1009.1 1006.6 0.0
29/10:30pm 27.4 27.2 14.8 46 7.7 NE 9 11 5 6 1008.9 1006.4 0.0
29/10:00pm 27.1 26.5 14.5 46 7.7 E 11 11 6 6 1008.6 1006.1 0.0
29/09:30pm 27.8 26.8 13.3 40 8.7 E 11 13 6 7 1008.4 1005.9 0.0
29/09:00pm 28.8 27.7 13.1 38 9.4 E 11 15 6 8 1008.2 1005.6 0.0
29/08:30pm 30.0 28.8 12.9 35 10.3 E 11 15 6 8 1007.9 1005.3 0.0
29/08:00pm 30.3 29.7 13.6 36 10.1 ENE 9 11 5 6 1007.3 1004.7 0.0
29/07:30pm 30.7 29.3 12.1 32 11.1 E 11 13 6 7 1006.5 1003.9 0.0
29/07:00pm 33.1 31.9 11.6 27 12.8 E 9 13 5 7 1006.0 1003.5 0.0
29/06:30pm 34.1 32.1 10.0 23 14.1 E 11 15 6 8 1005.7 1003.2 0.0
29/06:00pm 34.8 33.3 10.6 23 14.3 E 9 15 5 8 1005.5 1003.0 0.0
29/05:30pm 35.1 33.3 10.9 23 14.4 ESE 11 17 6 9 1005.4 1002.9 0.0
29/05:00pm 35.7 33.7 11.4 23 14.6 SE 13 26 7 14 1005.3 1002.7 0.0
29/04:30pm 35.8 34.2 11.4 23 14.7 ESE 11 17 6 9 1005.5 1003.0 0.0
29/04:00pm 36.1 34.4 12.3 24 14.5 SE 13 24 7 13 1005.8 1003.3 0.0
29/03:30pm 35.5 33.4 11.2 23 14.6 NE 13 28 7 15 1006.2 1003.6 0.0
29/03:00pm 35.4 33.1 11.7 23 14.3 NNE 15 26 8 14 1006.6 1004.0 0.0
29/02:30pm 35.0 33.9 12.0 25 13.9 ENE 9 20 5 11 1006.8 1004.2 0.0
29/02:00pm 35.2 33.6 11.6 24 14.2 ESE 11 19 6 10 1007.1 1004.5 0.0
29/01:30pm 35.1 32.2 10.9 23 14.4 SE 17 26 9 14 1007.4 1004.8 0.0
29/01:00pm 34.8 31.6 11.2 24 14.1 E 19 26 10 14 1007.6 1005.0 0.0
29/12:30pm 34.6 33.4 11.7 25 13.8 E 9 11 5 6 1008.0 1005.4 0.0
29/12:00pm 34.3 33.0 12.6 27 13.2 NNE 11 19 6 10 1008.3 1005.8 0.0
29/11:30am 33.0 31.6 12.1 28 12.6 NE 11 17 6 9 1008.8 1006.3 0.0
29/11:00am 32.8 33.1 14.9 34 11.2 SE 7 19 4 10 1009.0 1006.5 0.0
29/10:30am 32.0 33.1 16.7 40 9.8 NW 6 9 3 5 1009.5 1006.9 0.0
29/10:00am 30.9 32.5 16.9 43 8.9 E 4 9 2 5 1009.6 1007.0 0.0
29/09:30am 30.7 32.0 18.4 47 8.0 ESE 9 13 5 7 1009.6 1007.0 0.0
29/09:00am 29.1 30.3 19.1 54 6.6 SSE 11 17 6 9 1009.2 1006.7 1.0
29/08:30am 28.0 30.5 20.3 63 5.1 NW 7 9 4 5 1008.7 1006.2 1.0
29/08:00am 26.8 31.3 22.2 76 3.1 W 2 6 1 3 1008.5 1006.0 1.0
29/07:30am 25.6 31.2 23.5 88 1.5 CALM 0 0 0 0 1008.2 1005.6 1.0
29/07:00am 24.4 29.5 22.7 90 1.2 CALM 0 0 0 0 1007.6 1005.0 1.0
29/06:30am 24.0 28.7 21.9 88 1.4 CALM 0 0 0 0 1007.1 1004.5 0.8
29/06:00am 24.7 29.8 22.6 88 1.4 CALM 0 0 0 0 1006.9 1004.3 0.8
29/05:30am 24.9 30.0 22.6 87 1.6 CALM 0 0 0 0 1006.8 1004.2 0.8
29/05:00am 24.9 29.8 22.4 86 1.7 CALM 0 2 0 1 1006.6 1004.0 0.8
29/04:30am 25.2 29.2 22.7 86 1.7 N 6 7 3 4 1006.7 1004.1 0.8
29/04:00am 25.3 28.9 22.0 82 2.2 ENE 6 9 3 5 1006.6 1004.0 0.8
29/03:30am 25.3 28.7 22.0 82 2.2 ENE 7 9 4 5 1006.5 1003.9 0.8
29/03:00am 25.3 29.7 21.4 79 2.6 CALM 0 0 0 0 1006.3 1003.7 0.8
29/02:30am 25.5 30.6 22.6 84 2.0 CALM 0 0 0 0 1006.6 1004.0 0.8
29/02:00am 25.5 30.1 21.8 80 2.5 CALM 0 0 0 0 1006.9 1004.3 0.8
29/01:30am 25.7 29.5 21.6 78 2.8 SE 4 7 2 4 1007.2 1004.6 0.8
29/01:00am 25.7 28.3 22.0 80 2.5 SSE 11 17 6 9 1007.7 1005.1 0.8
29/12:30am 25.8 30.6 22.1 80 2.5 CALM 0 0 0 0 1007.7 1005.1 0.8
29/12:00am 25.8 30.7 22.3 81 2.4 CALM 0 2 0 1 1008.0 1005.4 0.8
 
Date/Time
CST
Temp
°C
App
Temp
°C
Dew
Point
Rel
Hum
%
Delta-T
°C
Wind Press
QNH
hPa
Press
MSL
hPa
Rain
since 9 am
mm
Dir
 
Spd
km/h
Gust
km/h
Spd
kts
Gust
kts
28/11:30pm 25.9 29.5 22.4 81 2.4 NNW 7 7 4 4 1008.1 1005.5 0.8
28/11:00pm 25.6 29.0 21.7 79 2.6 W 6 7 3 4 1007.9 1005.3 0.8
28/10:30pm 26.0 29.1 21.0 74 3.3 WNW 6 9 3 5 1008.0 1005.4 0.8
28/10:00pm 26.5 29.2 21.3 73 3.5 W 9 11 5 6 1007.7 1005.1 0.8
28/09:30pm 27.1 30.6 21.8 73 3.6 NW 6 9 3 5 1007.3 1004.7 0.8
28/09:00pm 26.9 31.2 21.2 71 3.8 CALM 0 0 0 0 1006.8 1004.2 0.8
28/08:30pm 27.6 31.6 21.4 69 4.2 SSW 2 17 1 9 1006.4 1003.8 0.8
28/08:00pm 26.7 28.1 18.6 61 5.2 WNW 9 19 5 10 1005.9 1003.4 0.8
28/07:49pm 27.3 24.9 18.3 58 5.8 NNW 28 39 15 21 1005.9 1003.4 0.6
28/07:30pm 25.9 26.7 19.1 66 4.4 WNW 13 20 7 11 1005.7 1003.2 0.2
28/07:27pm 26.2 27.0 19.1 65 4.6 WNW 13 19 7 10 1005.8 1003.3 0.2
28/07:00pm 31.2 30.0 16.0 40 9.6 SSW 17 26 9 14 1005.2 1002.6 0.0
28/06:30pm 33.2 33.6 15.2 33 11.3 NNE 7 11 4 6 1004.5 1001.9 0.0
28/06:00pm 34.3 33.9 14.2 29 12.5 ENE 9 15 5 8 1004.2 1001.6 0.0
28/05:30pm 35.6 35.4 14.8 28 13.1 E 9 22 5 12 1003.9 1001.3 0.0
28/05:00pm 35.6 36.0 15.3 29 12.9 NE 7 13 4 7 1003.9 1001.3 0.0
28/04:30pm 35.3 35.5 14.6 29 13.0 SE 7 11 4 6 1004.0 1001.4 0.0
28/04:00pm 34.0 34.3 14.5 31 12.2 ESE 6 11 3 6 1004.4 1001.8 0.0
28/03:30pm 35.5 35.7 14.7 28 13.1 E 7 13 4 7 1004.8 1002.2 0.0
28/03:00pm 35.5 36.3 16.3 32 12.4 E 7 11 4 6 1005.1 1002.5 0.0
28/02:30pm 33.8 34.0 14.8 32 11.9 ENE 7 13 4 7 1005.5 1003.0 0.0
28/02:00pm 35.2 34.5 16.5 33 12.0 S 15 20 8 11 1005.7 1003.2 0.0
28/01:30pm 34.2 34.9 16.1 34 11.6 E 7 11 4 6 1006.2 1003.6 0.0
28/01:00pm 33.1 33.8 16.0 35 10.9 SE 7 13 4 7 1006.7 1004.1 0.0
28/12:30pm 33.4 34.5 18.0 40 10.1 SSE 9 22 5 12 1007.0 1004.4 0.0
28/12:00pm 32.8 33.2 18.2 42 9.6 S 13 22 7 12 1007.3 1004.7 0.0
28/11:30am 32.0 31.9 17.8 42 9.2 SSE 15 22 8 12 1007.8 1005.2 0.0
28/11:00am 31.8 33.3 19.8 49 8.0 S 11 19 6 10 1008.1 1005.5 0.0
28/10:30am 30.8 32.1 19.2 50 7.7 SSE 11 20 6 11 1008.4 1005.9 0.0
28/10:00am 30.0 30.1 19.1 52 7.2 S 17 24 9 13 1008.5 1006.0 0.0
28/09:30am 29.3 29.3 20.2 58 6.1 SSW 20 28 11 15 1008.3 1005.8 0.0
28/09:00am 28.1 29.0 20.9 65 4.8 SSW 17 20 9 11 1008.2 1005.6 1.2
28/08:30am 25.8 27.8 21.5 77 2.9 SW 13 17 7 9 1008.2 1005.6 1.2
28/08:00am 24.6 26.6 21.5 83 2.1 SSW 13 17 7 9 1008.3 1005.8 1.2
28/07:30am 24.4 26.8 21.5 84 1.9 S 11 15 6 8 1008.0 1005.4 1.2
28/07:00am 23.2 26.6 21.6 91 1.1 SSE 6 9 3 5 1007.7 1005.1 1.2
28/06:30am 22.6 25.5 21.1 91 1.0 SSW 7 9 4 5 1007.2 1004.6 1.2
28/06:00am 22.6 25.5 21.1 91 1.0 S 7 9 4 5 1007.1 1004.5 1.2
28/05:30am 22.3 25.3 20.8 91 1.0 W 6 7 3 4 1006.9 1004.3 1.2
28/05:00am 22.5 25.5 20.8 90 1.1 W 6 7 3 4 1006.9 1004.3 1.2
28/04:30am 22.8 25.3 21.1 90 1.1 WSW 9 11 5 6 1006.8 1004.2 1.2
28/04:00am 22.9 25.4 21.0 89 1.3 WSW 9 11 5 6 1006.9 1004.3 1.2
28/03:30am 23.1 25.5 20.8 87 1.5 W 9 11 5 6 1007.0 1004.4 1.2
28/03:00am 23.5 25.6 21.0 86 1.7 SW 11 15 6 8 1007.0 1004.4 1.2
28/02:30am 23.6 25.7 20.9 85 1.8 WSW 11 15 6 8 1007.2 1004.6 1.2
28/02:00am 23.9 25.6 21.0 84 1.9 WSW 13 17 7 9 1007.6 1005.0 1.2
28/01:30am 24.2 25.9 20.9 82 2.2 WSW 13 17 7 9 1008.1 1005.5 1.2
28/01:00am 24.8 26.5 20.9 79 2.6 WSW 13 17 7 9 1008.5 1006.0 1.2
28/12:30am 24.7 27.4 21.4 82 2.2 W 9 17 5 9 1008.8 1006.3 1.2
28/12:00am 25.0 27.2 21.1 79 2.6 WNW 11 17 6 9 1008.9 1006.4 1.2
 
Date/Time
CST
Temp
°C
App
Temp
°C
Dew
Point
Rel
Hum
%
Delta-T
°C
Wind Press
QNH
hPa
Press
MSL
hPa
Rain
since 9 am
mm
Dir
 
Spd
km/h
Gust
km/h
Spd
kts
Gust
kts
27/11:30pm 25.6 26.6 21.1 76 3.0 NNW 17 24 9 13 1009.0 1006.5 1.2
27/11:00pm 25.2 27.1 20.5 75 3.1 NW 11 17 6 9 1009.0 1006.5 1.2
27/10:30pm 25.6 27.8 20.4 73 3.4 NW 9 13 5 7 1008.9 1006.4 1.2
27/10:00pm 26.0 27.8 20.3 71 3.8 NW 11 13 6 7 1008.7 1006.2 1.2
27/09:30pm 26.4 28.0 20.7 71 3.8 NW 13 15 7 8 1008.4 1005.9 1.2
27/09:00pm 26.9 28.9 20.7 69 4.1 NW 11 19 6 10 1008.3 1005.8 1.2
27/08:30pm 27.0 28.9 21.3 71 3.8 NW 13 19 7 10 1008.1 1005.5 1.2
27/08:00pm 28.2 30.1 22.0 69 4.2 NW 15 22 8 12 1007.4 1004.8 1.2
27/07:30pm 29.2 33.0 22.7 68 4.5 SW 7 9 4 5 1006.6 1004.0 1.2
27/07:00pm 29.4 33.2 22.4 66 4.8 SW 6 7 3 4 1006.0 1003.5 1.2

Other Formats:

Comma delimited format used in spreadsheet applications
http://www.bom.gov.au/fwo/IDD60801/IDD60801.94231.axf

JavaScript Object Notation format (JSON) in row-major order
http://www.bom.gov.au/fwo/IDD60801/IDD60801.94231.json